createdAt,value
2023-01-04T00:02:08.462Z,10.30
2023-01-04T00:04:35.154Z,10.30
2023-01-04T00:07:01.790Z,10.30
2023-01-04T00:09:28.503Z,10.40
2023-01-04T00:11:55.152Z,10.40
2023-01-04T00:14:21.788Z,10.40
2023-01-04T00:16:48.589Z,10.40
2023-01-04T00:19:15.371Z,10.40
2023-01-04T00:21:42.031Z,10.40
2023-01-04T00:24:09.982Z,10.40
2023-01-04T00:26:36.902Z,10.40
2023-01-04T00:29:07.806Z,10.50
2023-01-04T00:31:35.161Z,10.50
2023-01-04T00:34:04.994Z,10.50
2023-01-04T00:36:32.754Z,10.50
2023-01-04T00:39:07.661Z,10.50
2023-01-04T00:42:04.461Z,10.50
2023-01-04T00:44:32.955Z,10.50
2023-01-04T00:47:01.619Z,10.60
2023-01-04T00:49:29.567Z,10.60
2023-01-04T00:51:56.427Z,10.60
2023-01-04T00:54:23.149Z,10.60
2023-01-04T00:56:51.199Z,10.60
2023-01-04T00:59:19.973Z,10.60
2023-01-04T01:01:47.415Z,10.70
2023-01-04T01:04:17.415Z,10.70
2023-01-04T01:06:44.268Z,10.70
2023-01-04T01:09:11.596Z,10.70
2023-01-04T01:11:39.684Z,10.70
2023-01-04T01:14:08.124Z,10.70
2023-01-04T01:19:21.976Z,10.80
2023-01-04T01:21:48.641Z,10.80
2023-01-04T01:24:17.596Z,10.80
2023-01-04T01:26:44.342Z,10.80
2023-01-04T01:29:11.066Z,10.80
2023-01-04T01:31:37.921Z,10.90
2023-01-04T01:34:04.660Z,10.90
2023-01-04T01:36:31.445Z,10.90
2023-01-04T01:38:58.059Z,10.90
2023-01-04T01:41:31.168Z,10.90
2023-01-04T01:44:01.457Z,10.90
2023-01-04T01:46:47.147Z,10.90
2023-01-04T01:49:25.716Z,11.00
2023-01-04T01:51:54.328Z,11.00
2023-01-04T01:54:27.045Z,11.00
2023-01-04T01:56:56.047Z,11.00
2023-01-04T01:59:23.061Z,11.00
2023-01-04T02:01:49.843Z,11.00
2023-01-04T02:04:17.116Z,11.00
2023-01-04T02:06:48.271Z,11.00
2023-01-04T02:09:15.626Z,11.00
2023-01-04T02:11:42.586Z,11.00
2023-01-04T02:14:27.801Z,11.00
2023-01-04T02:17:25.874Z,11.00
2023-01-04T02:20:43.246Z,11.00
2023-01-04T02:23:28.887Z,11.00
2023-01-04T02:25:58.494Z,11.00
2023-01-04T02:28:43.698Z,11.00
2023-01-04T02:31:29.180Z,11.00
2023-01-04T02:34:14.703Z,11.00
2023-01-04T02:37:08.881Z,11.00
2023-01-04T02:40:06.839Z,11.00
2023-01-04T02:43:16.568Z,11.00
2023-01-04T02:45:56.092Z,11.00
2023-01-04T02:48:41.865Z,11.00
2023-01-04T02:51:28.509Z,11.00
2023-01-04T02:53:58.125Z,11.10
2023-01-04T02:56:47.673Z,11.00
2023-01-04T02:59:33.094Z,11.10
2023-01-04T03:02:43.080Z,11.10
2023-01-04T03:05:54.272Z,11.10
2023-01-04T03:08:38.944Z,11.10
2023-01-04T03:11:28.858Z,11.10
2023-01-04T03:14:32.992Z,11.10
2023-01-04T03:17:04.657Z,11.10
2023-01-04T03:19:51.464Z,11.10
2023-01-04T03:22:52.079Z,11.10
2023-01-04T03:25:43.445Z,11.10
2023-01-04T03:28:32.025Z,11.10
2023-01-04T03:31:49.854Z,11.10
2023-01-04T03:34:35.887Z,11.10
2023-01-04T03:37:24.165Z,11.10
2023-01-04T03:40:31.363Z,11.20
2023-01-04T03:43:34.508Z,11.20
2023-01-04T03:46:47.140Z,11.20
2023-01-04T03:49:24.801Z,11.20
2023-01-04T03:51:55.483Z,11.20
2023-01-04T03:54:49.453Z,11.20
2023-01-04T03:57:16.816Z,11.20
2023-01-04T03:59:51.672Z,11.20
2023-01-04T04:02:23.757Z,11.30
2023-01-04T04:05:09.277Z,11.30
2023-01-04T04:07:54.782Z,11.30
2023-01-04T04:10:21.461Z,11.30
2023-01-04T04:12:48.769Z,11.30
2023-01-04T04:15:16.308Z,11.40
2023-01-04T04:17:42.951Z,11.40
2023-01-04T04:20:10.711Z,11.40
2023-01-04T04:22:37.321Z,11.40
2023-01-04T04:25:04.205Z,11.40
2023-01-04T04:27:30.839Z,11.50
2023-01-04T04:29:57.503Z,11.50
2023-01-04T04:32:24.347Z,11.50
2023-01-04T04:34:51.031Z,11.50
2023-01-04T04:37:17.681Z,11.50
2023-01-04T04:39:44.300Z,11.60
2023-01-04T04:42:10.971Z,11.60
2023-01-04T04:44:37.793Z,11.60
2023-01-04T04:47:04.436Z,11.60
2023-01-04T04:49:32.425Z,11.60
2023-01-04T04:51:59.065Z,11.70
2023-01-04T04:54:25.697Z,11.70
2023-01-04T04:56:52.372Z,11.70
2023-01-04T04:59:19.063Z,11.70
2023-01-04T05:01:46.013Z,11.70
2023-01-04T05:04:16.523Z,11.70
2023-01-04T05:06:44.403Z,11.80
2023-01-04T05:09:12.114Z,11.80
2023-01-04T05:11:57.778Z,11.80
2023-01-04T05:14:24.640Z,11.80
2023-01-04T05:16:51.356Z,11.90
2023-01-04T05:19:18.158Z,11.90
2023-01-04T05:21:44.840Z,11.90
2023-01-04T05:24:12.651Z,11.90
2023-01-04T05:26:39.790Z,11.90
2023-01-04T05:29:06.704Z,11.90
2023-01-04T05:31:33.438Z,11.90
2023-01-04T05:34:00.179Z,11.90
2023-01-04T05:36:26.846Z,12.00
2023-01-04T05:38:53.427Z,12.00
2023-01-04T05:41:38.934Z,12.00
2023-01-04T05:44:05.652Z,12.00
2023-01-04T05:46:32.369Z,12.00
2023-01-04T05:48:59.123Z,12.00
2023-01-04T05:51:25.791Z,12.00
2023-01-04T05:53:52.395Z,12.10
2023-01-04T05:56:19.031Z,12.10
2023-01-04T05:58:45.617Z,12.10
2023-01-04T06:01:12.511Z,12.10
2023-01-04T06:03:39.256Z,12.10
2023-01-04T06:06:06.061Z,12.10
2023-01-04T06:08:32.708Z,12.20
2023-01-04T06:10:59.340Z,12.20
2023-01-04T06:13:26.159Z,12.20
2023-01-04T06:15:52.827Z,12.20
2023-01-04T06:18:19.460Z,12.20
2023-01-04T06:20:46.135Z,12.20
2023-01-04T06:23:12.826Z,12.30
2023-01-04T06:25:39.490Z,12.30
2023-01-04T06:28:06.114Z,12.30
2023-01-04T06:30:32.787Z,12.30
2023-01-04T06:32:59.423Z,12.30
2023-01-04T06:35:26.200Z,12.40
2023-01-04T06:37:52.966Z,12.40
2023-01-04T06:40:19.595Z,12.40
2023-01-04T06:42:46.303Z,12.40
2023-01-04T06:45:14.947Z,12.50
2023-01-04T06:47:42.077Z,12.50
2023-01-04T06:50:09.438Z,12.50
2023-01-04T06:52:36.304Z,12.50
2023-01-04T06:55:03.058Z,12.60
2023-01-04T06:57:30.653Z,12.60
2023-01-04T06:59:57.294Z,12.60
2023-01-04T07:02:24.116Z,12.50
2023-01-04T07:04:50.975Z,12.60
2023-01-04T07:07:18.070Z,12.70
2023-01-04T07:09:44.721Z,12.70
2023-01-04T07:12:11.392Z,12.70
2023-01-04T07:14:38.025Z,12.70
2023-01-04T07:17:04.723Z,12.80
2023-01-04T07:19:31.344Z,12.80
2023-01-04T07:21:58.627Z,12.80
2023-01-04T07:24:30.062Z,12.80
2023-01-04T07:26:59.020Z,12.80
2023-01-04T07:29:26.007Z,12.80
2023-01-04T07:31:53.343Z,12.80
2023-01-04T07:34:22.629Z,12.80
2023-01-04T07:36:50.026Z,12.90
2023-01-04T07:39:18.214Z,12.90
2023-01-04T07:41:45.806Z,12.90
2023-01-04T07:44:15.034Z,12.90
2023-01-04T07:46:43.002Z,12.90
2023-01-04T07:49:17.748Z,12.90
2023-01-04T07:51:49.613Z,13.00
2023-01-04T07:54:17.392Z,13.00
2023-01-04T07:56:45.664Z,13.00
2023-01-04T07:59:14.720Z,13.00
2023-01-04T08:01:41.802Z,13.00
2023-01-04T08:04:10.967Z,13.00
2023-01-04T08:06:38.725Z,13.00
2023-01-04T08:09:06.756Z,13.10
2023-01-04T08:11:34.114Z,13.10
2023-01-04T08:14:00.738Z,13.10
2023-01-04T08:16:32.783Z,13.10
2023-01-04T08:19:01.591Z,13.10
2023-01-04T08:21:31.057Z,13.10
2023-01-04T08:23:58.749Z,13.20
2023-01-04T08:26:25.454Z,13.20
2023-01-04T08:28:52.377Z,13.20
2023-01-04T08:31:22.766Z,13.20
2023-01-04T08:33:50.143Z,13.20
2023-01-04T08:36:29.136Z,13.30
2023-01-04T08:39:02.197Z,13.30
2023-01-04T08:44:18.902Z,13.30
2023-01-04T08:46:46.019Z,13.30
2023-01-04T08:49:13.018Z,13.30
2023-01-04T08:51:40.381Z,13.40
2023-01-04T08:54:07.189Z,13.40
2023-01-04T08:56:33.847Z,13.40
2023-01-04T08:59:00.798Z,13.40
2023-01-04T09:01:28.138Z,13.40
2023-01-04T09:03:56.559Z,13.40
2023-01-04T09:06:23.372Z,13.40
2023-01-04T09:08:50.587Z,13.40
2023-01-04T09:11:19.833Z,13.40
2023-01-04T09:13:47.357Z,13.40
2023-01-04T09:16:16.977Z,13.40
2023-01-04T09:18:44.916Z,13.50
2023-01-04T09:21:20.266Z,13.50
2023-01-04T09:23:47.775Z,13.50
2023-01-04T09:26:17.426Z,13.50
2023-01-04T09:28:44.661Z,13.50
2023-01-04T09:31:17.411Z,13.50
2023-01-04T09:34:13.340Z,13.50
2023-01-04T09:36:31.914Z,13.50
2023-01-04T09:38:58.622Z,13.50
2023-01-04T09:41:30.090Z,13.50
2023-01-04T09:44:09.985Z,13.50
2023-01-04T09:46:53.125Z,13.50
2023-01-04T09:49:37.116Z,13.50
2023-01-04T09:52:13.247Z,13.50
2023-01-04T09:54:45.090Z,13.50
2023-01-04T09:57:21.252Z,13.60
2023-01-04T09:59:49.827Z,13.60
2023-01-04T10:02:24.625Z,13.60
2023-01-04T10:04:52.001Z,13.60
2023-01-04T10:07:26.959Z,13.60
2023-01-04T10:09:53.912Z,13.60
2023-01-04T10:12:41.959Z,13.60
2023-01-04T10:15:19.752Z,13.70
2023-01-04T10:19:43.417Z,13.70
2023-01-04T10:24:02.874Z,13.70
2023-01-04T10:26:42.186Z,13.70
2023-01-04T10:29:45.004Z,13.80
2023-01-04T10:32:16.180Z,13.70
2023-01-04T10:34:45.246Z,13.80
2023-01-04T10:37:24.230Z,13.80
2023-01-04T10:39:52.930Z,13.80
2023-01-04T10:42:32.752Z,13.80
2023-01-04T10:45:34.591Z,13.90
2023-01-04T10:48:12.993Z,13.90
2023-01-04T10:50:56.452Z,13.90
2023-01-04T10:53:32.488Z,13.90
2023-01-04T10:56:38.916Z,14.00
2023-01-04T10:59:15.597Z,14.00
2023-01-04T11:01:47.733Z,14.00
2023-01-04T11:04:33.638Z,14.10
2023-01-04T11:07:07.741Z,14.10
2023-01-04T11:09:57.212Z,14.10
2023-01-04T11:12:24.080Z,14.10
2023-01-04T11:14:52.265Z,14.20
2023-01-04T11:17:21.289Z,14.10
2023-01-04T11:19:48.241Z,14.20
2023-01-04T11:22:57.085Z,14.20
2023-01-04T11:25:35.033Z,14.20
2023-01-04T11:28:16.872Z,14.20
2023-01-04T11:31:28.658Z,14.20
2023-01-04T11:34:03.265Z,14.30
2023-01-04T11:36:40.099Z,14.30
2023-01-04T11:39:21.685Z,14.30
2023-01-04T11:42:03.273Z,14.30
2023-01-04T11:44:33.165Z,14.40
2023-01-04T11:47:07.279Z,14.40
2023-01-04T11:49:36.299Z,14.40
2023-01-04T11:52:08.440Z,14.40
2023-01-04T11:54:35.093Z,14.40
2023-01-04T11:57:12.464Z,14.50
2023-01-04T11:59:39.329Z,14.50
2023-01-04T12:08:09.400Z,14.50
2023-01-04T12:10:36.645Z,14.50
2023-01-04T12:13:03.365Z,14.50
2023-01-04T12:15:54.693Z,14.60
2023-01-04T12:18:30.202Z,14.50
2023-01-04T12:20:57.570Z,14.60
2023-01-04T12:23:24.335Z,14.60
2023-01-04T12:25:53.482Z,14.60
2023-01-04T12:28:36.436Z,14.60
2023-01-04T12:31:22.050Z,14.60
2023-01-04T12:33:55.179Z,14.60
2023-01-04T12:36:42.963Z,14.60
2023-01-04T12:39:13.011Z,14.60
2023-01-04T12:41:39.651Z,14.60
2023-01-04T12:44:37.464Z,14.60
2023-01-04T12:47:44.983Z,14.60
2023-01-04T12:50:23.144Z,14.70
2023-01-04T12:53:19.970Z,14.70
2023-01-04T12:55:44.761Z,14.70
2023-01-04T12:58:58.190Z,14.70
2023-01-04T13:01:27.615Z,14.70
2023-01-04T13:04:06.110Z,14.70
2023-01-04T13:06:42.510Z,14.70
2023-01-04T13:09:25.019Z,14.70
2023-01-04T13:12:08.261Z,14.70
2023-01-04T13:14:44.230Z,14.80
2023-01-04T13:17:26.154Z,14.70
2023-01-04T13:19:53.053Z,14.70
2023-01-04T13:22:30.350Z,14.80
2023-01-04T13:24:59.079Z,14.80
2023-01-04T13:27:27.315Z,14.80
2023-01-04T13:29:54.202Z,14.80
2023-01-04T13:32:29.870Z,14.80
2023-01-04T13:35:01.533Z,14.80
2023-01-04T13:37:48.617Z,14.80
2023-01-04T13:40:20.928Z,14.80
2023-01-04T13:43:02.044Z,14.80
2023-01-04T13:45:37.193Z,14.80
2023-01-04T13:48:09.269Z,14.80
2023-01-04T13:50:44.078Z,14.80
2023-01-04T13:53:23.401Z,14.90
2023-01-04T13:55:52.802Z,14.80
2023-01-04T13:58:25.309Z,14.90
2023-01-04T14:00:56.588Z,14.90
2023-01-04T14:03:43.388Z,14.90
2023-01-04T14:06:10.065Z,14.90
2023-01-04T14:08:36.634Z,14.90
2023-01-04T14:11:14.035Z,14.90
2023-01-04T14:13:46.847Z,14.90
2023-01-04T14:16:15.399Z,15.00
2023-01-04T14:18:42.143Z,15.00
2023-01-04T14:21:17.228Z,15.00
2023-01-04T14:23:44.181Z,15.00
2023-01-04T14:26:31.247Z,15.00
2023-01-04T14:28:57.873Z,15.00
2023-01-04T14:31:27.819Z,15.00
2023-01-04T14:33:55.244Z,15.00
2023-01-04T14:36:30.294Z,15.00
2023-01-04T14:39:10.107Z,15.00
2023-01-04T14:41:54.770Z,15.10
2023-01-04T14:44:25.151Z,15.00
2023-01-04T14:46:54.814Z,15.00
2023-01-04T14:49:22.361Z,15.00
2023-01-04T14:51:55.475Z,15.10
2023-01-04T14:54:25.309Z,15.00
2023-01-04T14:56:53.301Z,15.10
2023-01-04T14:59:23.489Z,15.00
2023-01-04T15:01:54.576Z,15.10
2023-01-04T15:04:21.476Z,15.10
2023-01-04T15:06:51.666Z,15.10
2023-01-04T15:09:18.603Z,15.00
2023-01-04T15:11:45.232Z,15.00
2023-01-04T15:14:13.267Z,15.00
2023-01-04T15:16:40.004Z,15.00
2023-01-04T15:19:06.758Z,15.00
2023-01-04T15:21:40.358Z,15.10
2023-01-04T15:24:08.533Z,15.00
2023-01-04T15:26:35.251Z,15.00
2023-01-04T15:29:01.990Z,15.10
2023-01-04T15:31:32.591Z,15.10
2023-01-04T15:34:04.007Z,15.10
2023-01-04T15:36:30.768Z,15.10
2023-01-04T15:38:57.521Z,15.10
2023-01-04T15:41:42.927Z,15.10
2023-01-04T15:44:11.801Z,15.10
2023-01-04T15:46:39.250Z,15.10
2023-01-04T15:49:07.433Z,15.10
2023-01-04T15:51:37.300Z,15.10
2023-01-04T15:54:04.213Z,15.10
2023-01-04T15:56:30.856Z,15.10
2023-01-04T15:58:57.591Z,15.10
2023-01-04T16:01:24.388Z,15.10
2023-01-04T16:03:53.954Z,15.10
2023-01-04T16:06:21.911Z,15.10
2023-01-04T16:08:50.335Z,15.10
2023-01-04T16:11:20.461Z,15.10
2023-01-04T16:13:49.242Z,15.10
2023-01-04T16:16:16.934Z,15.10
2023-01-04T16:18:49.142Z,15.10
2023-01-04T16:21:20.042Z,15.10
2023-01-04T16:23:51.351Z,15.10
2023-01-04T16:26:17.995Z,15.10
2023-01-04T16:28:50.264Z,15.20
2023-01-04T16:31:17.240Z,15.10
2023-01-04T16:33:47.394Z,15.10
2023-01-04T16:36:15.323Z,15.20
2023-01-04T16:38:44.870Z,15.20
2023-01-04T16:41:17.607Z,15.20
2023-01-04T16:43:52.685Z,15.20
2023-01-04T16:46:21.199Z,15.10
2023-01-04T16:48:53.619Z,15.10
2023-01-04T16:51:21.384Z,15.10
2023-01-04T16:53:48.476Z,15.20
2023-01-04T16:56:17.067Z,15.20
2023-01-04T16:58:44.655Z,15.20
2023-01-04T17:01:26.642Z,15.20
2023-01-04T17:03:59.299Z,15.20
2023-01-04T17:06:31.801Z,15.20
2023-01-04T17:09:00.164Z,15.20
2023-01-04T17:14:15.624Z,15.10
2023-01-04T17:16:42.420Z,15.20
2023-01-04T17:19:09.685Z,15.20
2023-01-04T17:21:36.388Z,15.10
2023-01-04T17:24:03.742Z,15.20
2023-01-04T17:26:31.865Z,15.10
2023-01-04T17:29:00.134Z,15.20
2023-01-04T17:31:35.646Z,15.20
2023-01-04T17:34:02.923Z,15.10
2023-01-04T17:36:29.888Z,15.20
2023-01-04T17:39:00.097Z,15.20
2023-01-04T17:41:28.086Z,15.20
2023-01-04T17:44:03.780Z,15.20
2023-01-04T17:46:33.210Z,15.20
2023-01-04T17:49:22.256Z,15.20
2023-01-04T17:51:50.963Z,15.20
2023-01-04T17:54:17.761Z,15.20
2023-01-04T17:56:44.466Z,15.20
2023-01-04T17:59:12.470Z,15.20
2023-01-04T18:01:39.353Z,15.20
2023-01-04T18:04:06.212Z,15.20
2023-01-04T18:06:34.903Z,15.10
2023-01-04T18:09:04.115Z,15.20
2023-01-04T18:11:31.294Z,15.20
2023-01-04T18:13:58.334Z,15.20
2023-01-04T18:16:27.599Z,15.20
2023-01-04T18:18:56.007Z,15.20
2023-01-04T18:21:30.292Z,15.20
2023-01-04T18:29:33.143Z,15.10
2023-01-04T18:31:59.985Z,15.20
2023-01-04T18:34:27.168Z,15.10
2023-01-04T18:36:55.258Z,15.20
2023-01-04T18:39:22.006Z,15.20
2023-01-04T18:41:48.647Z,15.10
2023-01-04T18:44:32.645Z,15.10
2023-01-04T18:47:00.333Z,15.10
2023-01-04T18:49:26.987Z,15.10
2023-01-04T18:51:53.604Z,15.10
2023-01-04T18:54:21.444Z,15.10
2023-01-04T18:56:48.620Z,15.10
2023-01-04T18:59:17.189Z,15.10
2023-01-04T19:01:45.223Z,15.10
2023-01-04T19:04:12.551Z,15.10
2023-01-04T19:06:40.500Z,15.10
2023-01-04T19:09:07.793Z,15.10
2023-01-04T19:11:35.195Z,15.10
2023-01-04T19:14:02.590Z,15.10
2023-01-04T19:16:30.936Z,15.10
2023-01-04T19:18:59.670Z,15.10
2023-01-04T19:21:26.976Z,15.10
2023-01-04T19:23:53.964Z,15.10
2023-01-04T19:26:21.518Z,15.10
2023-01-04T19:28:48.846Z,15.10
2023-01-04T19:31:16.532Z,15.10
2023-01-04T19:33:43.246Z,15.10
2023-01-04T19:36:12.108Z,15.10
2023-01-04T19:38:38.968Z,15.10
2023-01-04T19:41:06.994Z,15.10
2023-01-04T19:43:34.222Z,15.00
2023-01-04T19:46:01.122Z,15.10
2023-01-04T19:48:27.823Z,15.00
2023-01-04T19:51:08.273Z,15.00
2023-01-04T19:53:35.649Z,15.00
2023-01-04T19:56:02.310Z,15.00
2023-01-04T19:58:29.020Z,14.90
2023-01-04T20:00:55.713Z,14.90
2023-01-04T20:03:23.569Z,14.90
2023-01-04T20:05:50.443Z,14.80
2023-01-04T20:08:17.392Z,14.80
2023-01-04T20:10:44.084Z,14.80
2023-01-04T20:13:10.987Z,14.70
2023-01-04T20:15:39.315Z,14.70
2023-01-04T20:18:13.409Z,14.70
2023-01-04T20:20:47.560Z,14.60
2023-01-04T20:23:15.210Z,14.70
2023-01-04T20:25:47.100Z,14.60
2023-01-04T20:28:14.466Z,14.60
2023-01-04T20:30:41.313Z,14.50
2023-01-04T20:33:09.409Z,14.50
2023-01-04T20:35:44.413Z,14.50
2023-01-04T20:38:11.990Z,14.50
2023-01-04T20:40:39.349Z,14.50
2023-01-04T20:43:25.273Z,14.50
2023-01-04T20:45:52.030Z,14.50
2023-01-04T20:48:19.042Z,14.50
2023-01-04T20:50:45.697Z,14.50
2023-01-04T20:53:13.276Z,14.40
2023-01-04T20:55:41.086Z,14.50
2023-01-04T20:58:13.668Z,14.40
2023-01-04T21:00:41.418Z,14.40
2023-01-04T21:03:10.512Z,14.40
2023-01-04T21:05:44.288Z,14.40
2023-01-04T21:08:12.823Z,14.40
2023-01-04T21:10:43.758Z,14.40
2023-01-04T21:13:11.950Z,14.40
2023-01-04T21:15:39.846Z,14.40
2023-01-04T21:18:07.378Z,14.40
2023-01-04T21:20:34.137Z,14.40
2023-01-04T21:23:00.765Z,14.40
2023-01-04T21:25:27.522Z,14.40
2023-01-04T21:27:54.348Z,14.40
2023-01-04T21:30:21.262Z,14.40
2023-01-04T21:32:47.955Z,14.40
2023-01-04T21:35:14.669Z,14.40
2023-01-04T21:37:41.383Z,14.40
2023-01-04T21:40:08.911Z,14.40
2023-01-04T21:42:35.785Z,14.40
2023-01-04T21:45:02.646Z,14.40
2023-01-04T21:47:33.098Z,14.60
2023-01-04T21:49:59.834Z,14.40
2023-01-04T21:52:26.750Z,14.40
2023-01-04T21:54:53.614Z,14.40
2023-01-04T21:57:20.289Z,14.50
2023-01-04T21:59:47.164Z,14.50
2023-01-04T22:02:18.784Z,14.50
2023-01-04T22:04:46.221Z,14.40
2023-01-04T22:07:13.350Z,14.50
2023-01-04T22:09:39.991Z,14.40
2023-01-04T22:12:07.083Z,14.50
2023-01-04T22:14:34.727Z,14.50
2023-01-04T22:17:01.431Z,14.40
2023-01-04T22:19:28.451Z,14.40
2023-01-04T22:21:55.214Z,14.40
2023-01-04T22:24:22.150Z,14.50
2023-01-04T22:26:50.546Z,14.50
2023-01-04T22:29:18.579Z,14.50
2023-01-04T22:31:45.330Z,14.50
2023-01-04T22:34:12.313Z,14.50
2023-01-04T22:36:38.974Z,14.50
2023-01-04T22:39:06.832Z,14.50
2023-01-04T22:41:33.785Z,14.50
2023-01-04T22:44:05.950Z,14.50
2023-01-04T22:46:34.783Z,14.50
2023-01-04T22:49:02.375Z,14.50
2023-01-04T22:51:30.381Z,14.50
2023-01-04T22:53:59.108Z,14.50
2023-01-04T22:56:26.981Z,14.50
2023-01-04T22:58:55.829Z,14.50
2023-01-04T23:01:25.480Z,14.50
2023-01-04T23:03:52.709Z,14.50
2023-01-04T23:06:20.425Z,14.50
2023-01-04T23:08:48.218Z,14.40
2023-01-04T23:11:17.289Z,14.50
2023-01-04T23:13:44.337Z,14.40
2023-01-04T23:16:13.850Z,14.50
2023-01-04T23:18:40.844Z,14.40
2023-01-04T23:21:08.165Z,14.40
2023-01-04T23:23:35.133Z,14.40
2023-01-04T23:26:15.977Z,14.40
2023-01-04T23:28:43.337Z,14.40
2023-01-04T23:31:13.142Z,14.40
2023-01-04T23:33:40.146Z,14.40
2023-01-04T23:36:15.060Z,14.40
2023-01-04T23:38:42.802Z,14.40
2023-01-04T23:41:11.068Z,14.40
2023-01-04T23:43:38.887Z,14.40
2023-01-04T23:46:16.108Z,14.40
2023-01-04T23:48:43.669Z,14.40
2023-01-04T23:51:14.733Z,14.40
2023-01-04T23:53:41.383Z,14.30
2023-01-04T23:56:14.795Z,14.30
2023-01-04T23:58:41.687Z,14.30
